Time;durP1;ratioP1;P1;durP2;ratioP2;P2;SDS_P1;SDS_P2;PMS_P1;PMS_P2;Temp;Humidity;BMP_temperature;BMP_pressure;BME280_temperature;BME280_humidity;BME280_pressure;Samples;Min_cycle;Max_cycle;Signal;HPM_P1;HPM_P2
2023/04/10 00:00:09;;;;;;;48.60;25.27;;;8.30;98.50;;;;;;5094364;28;20454;-72
2023/04/10 00:02:36;;;;;;;51.97;24.85;;;8.30;98.60;;;;;;5093899;28;20429;-74
2023/04/10 00:05:02;;;;;;;50.88;23.98;;;8.20;98.70;;;;;;5094248;28;20032;-74
2023/04/10 00:07:28;;;;;;;51.10;24.80;;;8.30;98.60;;;;;;5092783;28;20111;-73
2023/04/10 00:09:53;;;;;;;45.13;22.23;;;8.20;98.70;;;;;;5094059;28;20112;-73
2023/04/10 00:12:19;;;;;;;45.47;22.35;;;8.10;98.70;;;;;;5094473;28;20028;-73
2023/04/10 00:14:45;;;;;;;50.55;24.13;;;8.10;98.70;;;;;;5092645;28;20042;-73
2023/04/10 00:17:11;;;;;;;49.55;23.80;;;8.00;98.80;;;;;;5093260;28;20087;-73
2023/04/10 00:19:37;;;;;;;52.33;25.02;;;8.00;98.80;;;;;;5092345;28;20397;-73
2023/04/10 00:22:03;;;;;;;55.13;25.95;;;8.00;98.90;;;;;;5093431;28;20114;-74
2023/04/10 00:24:29;;;;;;;52.63;26.27;;;7.90;99.10;;;;;;5091403;28;20020;-73
2023/04/10 00:26:56;;;;;;;56.33;26.55;;;7.80;99.10;;;;;;5093664;28;20039;-74
2023/04/10 00:29:22;;;;;;;55.10;26.33;;;7.90;99.30;;;;;;5093688;28;20028;-75
2023/04/10 00:31:48;;;;;;;53.63;27.42;;;7.80;99.20;;;;;;5093212;28;20438;-73
2023/04/10 00:34:14;;;;;;;54.83;26.13;;;7.80;99.40;;;;;;5091923;28;20085;-75
2023/04/10 00:36:40;;;;;;;56.55;28.15;;;7.70;99.50;;;;;;5093378;28;20103;-73
2023/04/10 00:39:08;;;;;;;60.88;29.15;;;7.90;99.50;;;;;;5092920;28;20119;-74
2023/04/10 00:41:34;;;;;;;;;;;7.70;99.70;;;;;;5093584;28;20039;-73
2023/04/10 00:43:59;;;;;;;67.57;31.25;;;7.80;99.70;;;;;;5093282;28;20262;-74
2023/04/10 00:46:26;;;;;;;67.32;30.35;;;7.80;99.80;;;;;;5093058;28;20496;-72
2023/04/10 00:48:53;;;;;;;64.97;30.42;;;8.00;99.70;;;;;;5092880;28;20152;-75
2023/04/10 00:51:20;;;;;;;59.38;30.95;;;7.90;99.70;;;;;;5093295;28;20032;-74
2023/04/10 00:53:49;;;;;;;78.55;34.58;;;7.90;99.70;;;;;;5092757;28;20122;-73
2023/04/10 00:56:16;;;;;;;70.85;32.50;;;8.00;99.70;;;;;;5091846;28;20048;-73
2023/04/10 00:58:41;;;;;;;68.78;34.33;;;8.00;99.80;;;;;;5093087;28;20040;-75
2023/04/10 01:01:07;;;;;;;75.65;34.83;;;8.10;99.70;;;;;;5092999;28;20020;-73
2023/04/10 01:03:34;;;;;;;68.50;33.63;;;8.10;99.70;;;;;;5093302;28;20035;-72
2023/04/10 01:06:07;;;;;;;67.72;32.78;;;8.10;99.60;;;;;;5092648;28;20097;-73
2023/04/10 01:08:43;;;;;;;73.97;33.65;;;8.10;99.70;;;;;;5092634;28;20076;-74
2023/04/10 01:11:48;;;;;;;67.45;32.20;;;8.20;99.90;;;;;;5092288;28;20028;-74
2023/04/10 01:14:44;;;;;;;74.45;33.10;;;8.10;99.60;;;;;;5091432;28;20067;-73
2023/04/10 01:17:18;;;;;;;65.82;32.15;;;8.10;99.50;;;;;;5091180;28;20044;-73
2023/04/10 01:20:00;;;;;;;67.35;32.45;;;8.00;99.60;;;;;;5091121;28;20124;-73
2023/04/10 01:22:35;;;;;;;65.28;31.80;;;7.90;99.60;;;;;;5092280;28;20149;-73
2023/04/10 01:25:28;;;;;;;76.03;33.25;;;7.80;99.70;;;;;;5092020;28;20031;-74
2023/04/10 01:28:18;;;;;;;64.05;30.65;;;7.80;99.80;;;;;;5092235;28;20422;-72
2023/04/10 01:30:50;;;;;;;68.93;32.17;;;7.90;99.80;;;;;;5091292;28;20048;-74
2023/04/10 01:33:20;;;;;;;68.05;32.03;;;7.80;99.80;;;;;;5090956;28;20093;-73
2023/04/10 01:35:51;;;;;;;66.68;33.00;;;7.70;99.90;;;;;;5082193;28;20036;-73
2023/04/10 01:38:19;;;;;;;67.90;31.88;;;7.70;99.90;;;;;;5071495;28;20024;-73
2023/04/10 01:40:51;;;;;;;74.05;34.17;;;7.70;99.90;;;;;;5071469;28;20040;-73
2023/04/10 01:43:19;;;;;;;74.70;35.85;;;7.70;99.90;;;;;;5071674;28;20064;-74
2023/04/10 01:45:50;;;;;;;79.45;37.47;;;7.60;99.90;;;;;;5072240;28;20023;-72
2023/04/10 01:48:17;;;;;;;78.72;33.03;;;7.60;99.90;;;;;;5071608;28;20056;-73
2023/04/10 01:50:45;;;;;;;69.40;32.28;;;7.50;99.90;;;;;;5071390;28;20029;-73
2023/04/10 01:53:12;;;;;;;73.47;34.03;;;7.50;99.90;;;;;;5071400;28;20029;-73
2023/04/10 01:55:38;;;;;;;70.75;33.63;;;7.50;99.90;;;;;;5071327;28;20033;-72
2023/04/10 01:58:05;;;;;;;72.60;32.95;;;7.50;99.90;;;;;;5071022;28;20028;-72
2023/04/10 02:00:42;;;;;;;70.47;33.10;;;7.50;99.90;;;;;;5071634;28;20020;-74
2023/04/10 02:03:09;;;;;;;71.90;33.95;;;7.50;99.90;;;;;;5071409;28;20343;-72
2023/04/10 02:05:55;;;;;;;71.85;33.22;;;7.40;99.90;;;;;;5071169;28;20025;-74
2023/04/10 02:08:30;;;;;;;73.80;32.83;;;7.40;99.90;;;;;;5071067;28;20025;-73
2023/04/10 02:11:01;;;;;;;69.70;32.28;;;7.50;99.90;;;;;;5070741;28;20037;-74
2023/04/10 02:13:28;;;;;;;67.57;31.45;;;7.40;99.90;;;;;;5071175;28;20028;-74
2023/04/10 02:15:57;;;;;;;67.38;32.25;;;7.30;99.90;;;;;;5070250;28;20032;-74
2023/04/10 02:18:24;;;;;;;64.53;31.80;;;7.30;99.90;;;;;;5070585;28;20029;-74
2023/04/10 02:20:51;;;;;;;68.50;32.00;;;7.20;99.90;;;;;;5071039;28;20052;-74
2023/04/10 02:23:19;;;;;;;64.72;31.50;;;7.20;99.90;;;;;;5069711;28;20033;-73
2023/04/10 02:25:45;;;;;;;70.13;33.95;;;7.20;99.90;;;;;;5071282;28;20458;-74
2023/04/10 02:28:11;;;;;;;61.90;31.05;;;7.10;99.90;;;;;;5071284;28;20038;-75
2023/04/10 02:30:38;;;;;;;69.47;33.05;;;7.10;99.90;;;;;;5071087;28;20355;-75
2023/04/10 02:33:04;;;;;;;66.43;30.55;;;7.00;99.90;;;;;;5069811;28;20107;-73
2023/04/10 02:35:30;;;;;;;67.93;32.30;;;7.00;99.90;;;;;;5069782;28;20039;-74
2023/04/10 02:37:55;;;;;;;63.88;30.45;;;6.90;99.90;;;;;;5069576;28;20086;-75
2023/04/10 02:40:22;;;;;;;62.65;31.08;;;7.00;99.90;;;;;;5071100;28;20028;-74
2023/04/10 02:42:48;;;;;;;70.37;30.37;;;6.90;99.90;;;;;;5071281;28;20021;-74
2023/04/10 02:45:14;;;;;;;65.25;30.30;;;6.90;99.90;;;;;;5070915;28;20272;-73
2023/04/10 02:47:40;;;;;;;63.50;30.02;;;7.00;99.90;;;;;;5070194;28;20175;-74
2023/04/10 02:50:06;;;;;;;64.80;30.55;;;7.00;99.90;;;;;;5070852;28;20054;-72
2023/04/10 02:52:31;;;;;;;64.50;30.35;;;7.00;99.90;;;;;;5071121;28;20040;-73
2023/04/10 02:54:57;;;;;;;64.18;30.42;;;7.00;99.90;;;;;;5070386;28;20032;-74
2023/04/10 02:57:23;;;;;;;64.45;30.42;;;7.00;99.90;;;;;;5071230;28;20024;-73
2023/04/10 02:59:52;;;;;;;61.92;30.45;;;7.00;99.90;;;;;;5070939;28;20041;-73
2023/04/10 03:02:18;;;;;;;62.08;28.80;;;7.10;99.90;;;;;;5072348;28;20024;-73
2023/04/10 03:04:43;;;;;;;56.25;28.35;;;7.10;99.90;;;;;;5074894;28;20028;-76
2023/04/10 03:07:09;;;;;;;60.42;28.55;;;7.10;99.90;;;;;;5069466;28;20039;-75
2023/04/10 03:09:35;;;;;;;63.20;29.55;;;7.10;99.90;;;;;;5071096;28;20082;-74
2023/04/10 03:12:01;;;;;;;58.83;27.38;;;7.10;99.90;;;;;;5070370;28;20029;-74
2023/04/10 03:14:27;;;;;;;63.15;29.25;;;7.20;99.90;;;;;;5070241;28;20115;-73
2023/04/10 03:16:53;;;;;;;62.75;29.55;;;7.20;99.90;;;;;;5069988;28;20111;-73
2023/04/10 03:19:18;;;;;;;61.95;27.95;;;7.30;99.90;;;;;;5070403;28;20414;-73
2023/04/10 03:21:47;;;;;;;62.95;29.60;;;7.30;99.90;;;;;;5070751;28;20454;-73
2023/04/10 03:24:13;;;;;;;65.25;29.63;;;7.20;99.90;;;;;;5069248;28;20056;-74
2023/04/10 03:26:38;;;;;;;57.75;26.73;;;7.20;99.90;;;;;;5069637;28;20071;-72
2023/04/10 03:29:04;;;;;;;60.95;29.55;;;7.20;99.90;;;;;;5070260;28;20536;-74
2023/04/10 03:31:30;;;;;;;58.83;27.20;;;7.20;99.90;;;;;;5069689;28;20040;-74
2023/04/10 03:33:56;;;;;;;57.40;26.85;;;7.30;99.90;;;;;;5070275;28;20021;-72
2023/04/10 03:36:21;;;;;;;59.13;28.13;;;7.20;99.90;;;;;;5070628;28;20348;-72
2023/04/10 03:38:47;;;;;;;57.38;27.80;;;7.20;99.90;;;;;;5069022;28;20036;-72
2023/04/10 03:41:13;;;;;;;58.58;28.77;;;7.20;99.90;;;;;;5070328;28;20148;-72
2023/04/10 03:43:38;;;;;;;57.90;28.27;;;7.10;99.90;;;;;;5070154;28;20462;-72
2023/04/10 03:46:04;;;;;;;60.05;28.92;;;7.10;99.90;;;;;;5070325;28;20040;-74
2023/04/10 03:48:31;;;;;;;60.55;28.15;;;7.00;99.90;;;;;;5070763;28;20094;-74
2023/04/10 03:50:57;;;;;;;49.47;25.73;;;7.00;99.90;;;;;;5070184;28;20492;-74
2023/04/10 03:53:23;;;;;;;60.60;27.35;;;7.00;99.90;;;;;;5069931;28;20126;-73
2023/04/10 03:55:48;;;;;;;54.75;27.42;;;7.10;99.90;;;;;;5068662;28;20040;-73
2023/04/10 03:58:14;;;;;;;53.58;26.33;;;6.90;99.90;;;;;;5070172;28;20089;-73
2023/04/10 04:00:40;;;;;;;57.42;27.05;;;7.00;99.90;;;;;;5074137;28;20025;-74
2023/04/10 04:03:06;;;;;;;58.30;27.08;;;7.00;99.90;;;;;;5073210;28;20116;-72
2023/04/10 04:05:31;;;;;;;60.92;27.80;;;6.90;99.90;;;;;;5073514;28;20213;-74
2023/04/10 04:07:57;;;;;;;60.10;28.02;;;6.90;99.90;;;;;;5073375;28;20037;-74
2023/04/10 04:10:23;;;;;;;54.20;27.38;;;6.90;99.90;;;;;;5073460;28;20473;-74
2023/04/10 04:12:49;;;;;;;59.15;27.40;;;6.80;99.90;;;;;;5073699;28;20028;-75
2023/04/10 04:15:15;;;;;;;62.38;27.52;;;6.80;99.90;;;;;;5073676;28;20119;-75
2023/04/10 04:17:41;;;;;;;59.60;27.20;;;6.80;99.90;;;;;;5072936;28;20205;-74
2023/04/10 04:20:07;;;;;;;55.33;26.15;;;6.70;99.90;;;;;;5073104;28;20487;-74
2023/04/10 04:22:33;;;;;;;61.92;27.40;;;6.70;99.90;;;;;;5071951;28;20119;-75
2023/04/10 04:24:59;;;;;;;59.00;26.80;;;6.60;99.90;;;;;;5071828;28;20170;-74
2023/04/10 04:27:24;;;;;;;64.25;29.38;;;6.50;99.90;;;;;;5073702;28;20377;-74
2023/04/10 04:29:50;;;;;;;57.05;27.00;;;6.70;99.90;;;;;;5072588;28;20129;-74
2023/04/10 04:32:15;;;;;;;54.60;26.52;;;6.50;99.90;;;;;;5071715;28;20044;-73
2023/04/10 04:34:41;;;;;;;50.63;25.33;;;6.40;99.90;;;;;;5072779;28;20033;-74
2023/04/10 04:37:06;;;;;;;58.45;28.67;;;6.40;99.90;;;;;;5072576;28;20035;-72
2023/04/10 04:39:32;;;;;;;62.90;27.65;;;6.30;99.90;;;;;;5072035;28;20358;-73
2023/04/10 04:41:58;;;;;;;57.95;27.30;;;6.30;99.90;;;;;;5072532;28;20021;-73
2023/04/10 04:44:23;;;;;;;54.20;26.25;;;6.20;99.90;;;;;;5072647;28;20082;-74
2023/04/10 04:46:49;;;;;;;54.75;26.13;;;6.40;99.90;;;;;;5072438;28;20407;-72
2023/04/10 04:49:15;;;;;;;58.78;27.30;;;6.40;99.90;;;;;;5072393;28;20085;-73
2023/04/10 04:51:40;;;;;;;53.38;26.60;;;6.30;99.90;;;;;;5071622;28;20032;-74
2023/04/10 04:54:06;;;;;;;55.03;25.33;;;6.40;99.90;;;;;;5072485;28;20039;-74
2023/04/10 04:56:32;;;;;;;59.03;27.05;;;6.40;99.90;;;;;;5072709;28;20135;-75
2023/04/10 04:58:57;;;;;;;57.35;27.48;;;6.50;99.90;;;;;;5071399;28;20123;-73
2023/04/10 05:01:23;;;;;;;54.45;25.35;;;6.50;99.90;;;;;;5072544;28;20063;-74
2023/04/10 05:03:49;;;;;;;52.95;24.73;;;6.50;99.90;;;;;;5072641;28;20036;-74
2023/04/10 05:06:16;;;;;;;50.95;25.58;;;6.60;99.90;;;;;;5072721;28;20039;-74
2023/04/10 05:08:42;;;;;;;49.53;25.95;;;6.70;99.90;;;;;;5071329;28;20504;-74
2023/04/10 05:11:08;;;;;;;50.75;25.33;;;6.80;99.90;;;;;;5071654;28;20032;-73
2023/04/10 05:13:34;;;;;;;52.33;25.73;;;6.80;99.90;;;;;;5072026;28;20044;-74
2023/04/10 05:15:59;;;;;;;50.80;25.48;;;6.80;99.90;;;;;;5071902;28;20103;-74
2023/04/10 05:18:25;;;;;;;51.22;24.25;;;6.90;99.90;;;;;;5072334;28;20101;-74
2023/04/10 05:20:51;;;;;;;53.00;25.08;;;6.90;99.90;;;;;;5071885;28;20024;-74
2023/04/10 05:23:16;;;;;;;46.95;23.40;;;6.90;99.90;;;;;;5070612;28;20036;-74
2023/04/10 05:25:42;;;;;;;52.85;24.08;;;6.90;99.90;;;;;;5072029;28;20036;-73
2023/04/10 05:28:08;;;;;;;52.03;24.88;;;7.00;99.90;;;;;;5071941;28;20028;-72
2023/04/10 05:30:33;;;;;;;52.80;24.80;;;7.00;99.90;;;;;;5072211;28;20052;-73
2023/04/10 05:32:59;;;;;;;53.42;23.60;;;7.10;99.90;;;;;;5071887;28;20548;-73
2023/04/10 05:35:25;;;;;;;57.63;24.90;;;7.20;99.90;;;;;;5071869;28;20039;-73
2023/04/10 05:37:50;;;;;;;67.90;26.92;;;7.20;99.90;;;;;;5071728;28;20451;-74
2023/04/10 05:40:16;;;;;;;57.13;25.17;;;7.10;99.90;;;;;;5071570;28;20468;-74
2023/04/10 05:42:42;;;;;;;64.10;26.20;;;7.10;99.90;;;;;;5071772;28;20024;-74
2023/04/10 05:45:08;;;;;;;54.08;25.55;;;7.10;99.90;;;;;;5071263;28;20025;-74
2023/04/10 05:47:34;;;;;;;61.95;25.08;;;7.10;99.90;;;;;;5071465;28;20127;-74
2023/04/10 05:50:00;;;;;;;60.45;25.55;;;7.20;99.90;;;;;;5071385;28;20428;-72
2023/04/10 05:52:25;;;;;;;66.13;25.98;;;7.20;99.90;;;;;;5071460;28;20032;-72
2023/04/10 05:54:51;;;;;;;57.47;26.08;;;7.30;99.90;;;;;;5071604;28;20024;-71
2023/04/10 05:57:17;;;;;;;53.72;25.38;;;7.30;99.90;;;;;;5071672;28;20020;-72
2023/04/10 05:59:42;;;;;;;56.20;25.38;;;7.30;99.90;;;;;;5071494;28;20098;-73
2023/04/10 06:02:08;;;;;;;58.17;25.17;;;7.40;99.90;;;;;;5071279;28;20477;-73
2023/04/10 06:04:34;;;;;;;58.15;26.33;;;7.40;99.90;;;;;;5071281;28;20456;-72
2023/04/10 06:07:00;;;;;;;54.67;24.27;;;7.50;99.90;;;;;;5071021;28;20025;-72
2023/04/10 06:09:25;;;;;;;59.30;24.73;;;7.50;99.90;;;;;;5071411;28;20091;-72
2023/04/10 06:11:52;;;;;;;50.13;22.52;;;7.60;99.90;;;;;;5069948;28;20044;-71
2023/04/10 06:14:19;;;;;;;49.20;22.95;;;7.70;99.90;;;;;;5071030;28;20500;-72
2023/04/10 06:16:44;;;;;;;49.42;23.92;;;7.90;99.90;;;;;;5069912;28;20044;-72
2023/04/10 06:19:10;;;;;;;49.47;23.65;;;8.00;99.90;;;;;;5070726;28;20044;-73
2023/04/10 06:21:36;;;;;;;48.70;23.90;;;8.10;99.90;;;;;;5069360;28;20025;-72
2023/04/10 06:24:01;;;;;;;52.05;24.00;;;8.20;99.90;;;;;;5070967;28;20037;-72
2023/04/10 06:26:27;;;;;;;49.92;22.92;;;8.30;99.90;;;;;;5070932;28;20043;-73
2023/04/10 06:28:53;;;;;;;48.70;21.13;;;8.40;99.70;;;;;;5070827;28;20373;-72
2023/04/10 06:31:22;;;;;;;48.42;22.45;;;8.40;99.40;;;;;;5070840;28;20474;-72
2023/04/10 06:33:49;;;;;;;46.80;22.48;;;8.50;99.30;;;;;;5071207;28;20107;-72
2023/04/10 06:36:15;;;;;;;41.92;20.83;;;8.60;99.20;;;;;;5070877;28;20501;-73
2023/04/10 06:38:41;;;;;;;40.70;19.98;;;8.80;99.10;;;;;;5070903;28;20047;-72
2023/04/10 06:41:07;;;;;;;42.80;20.88;;;8.80;98.90;;;;;;5070995;28;20032;-73
2023/04/10 06:43:34;;;;;;;44.03;21.88;;;8.90;98.80;;;;;;5070628;28;20354;-72
2023/04/10 06:46:00;;;;;;;44.92;21.98;;;8.90;98.60;;;;;;5069847;28;20012;-69
2023/04/10 06:48:26;;;;;;;43.63;20.55;;;9.00;98.60;;;;;;5071146;28;20032;-71
2023/04/10 06:50:51;;;;;;;46.38;21.00;;;9.10;98.50;;;;;;5070573;28;20024;-71
2023/04/10 06:53:17;;;;;;;50.83;24.75;;;9.20;98.40;;;;;;5070522;28;20036;-72
2023/04/10 06:55:43;;;;;;;51.65;21.88;;;9.30;98.30;;;;;;5070603;28;20035;-71
2023/04/10 06:58:08;;;;;;;40.17;19.52;;;9.40;98.10;;;;;;5070346;28;20514;-69
2023/04/10 07:00:34;;;;;;;44.72;19.15;;;9.50;98.10;;;;;;5071185;28;20028;-70
2023/04/10 07:02:59;;;;;;;41.05;21.65;;;9.50;97.80;;;;;;5070597;28;20405;-69
2023/04/10 07:05:25;;;;;;;38.55;20.48;;;9.70;97.80;;;;;;5070370;28;20056;-69
2023/04/10 07:07:51;;;;;;;35.55;18.83;;;9.80;97.70;;;;;;5070349;28;20056;-72
2023/04/10 07:10:16;;;;;;;36.60;18.42;;;9.90;97.60;;;;;;5070460;28;20044;-71
2023/04/10 07:12:42;;;;;;;33.65;17.10;;;10.00;96.70;;;;;;5070922;28;20052;-70
2023/04/10 07:15:08;;;;;;;32.55;16.92;;;10.10;96.50;;;;;;5069281;28;20529;-72
2023/04/10 07:17:34;;;;;;;32.88;15.85;;;10.20;96.50;;;;;;5070339;28;20033;-70
2023/04/10 07:20:00;;;;;;;29.73;16.13;;;10.40;96.10;;;;;;5070382;28;20439;-72
2023/04/10 07:22:26;;;;;;;29.73;15.80;;;10.50;95.90;;;;;;5069512;28;20045;-72
2023/04/10 07:24:52;;;;;;;27.13;15.10;;;10.60;96.10;;;;;;5070716;28;20355;-74
2023/04/10 07:27:19;;;;;;;33.45;15.43;;;10.70;95.70;;;;;;5071341;28;20108;-73
2023/04/10 07:29:45;;;;;;;28.70;15.63;;;10.90;95.60;;;;;;5069573;28;20032;-71
2023/04/10 07:32:11;;;;;;;27.50;14.95;;;10.90;95.50;;;;;;5030479;28;20386;-71
2023/04/10 07:34:36;;;;;;;28.85;14.95;;;11.10;95.40;;;;;;5033347;28;20121;-71
2023/04/10 07:37:02;;;;;;;26.88;14.32;;;11.10;95.00;;;;;;5034387;28;20053;-70
2023/04/10 07:39:28;;;;;;;24.83;13.80;;;11.20;94.90;;;;;;5034376;28;20374;-70
2023/04/10 07:41:54;;;;;;;26.35;14.15;;;11.30;94.90;;;;;;5034136;28;20116;-71
2023/04/10 07:44:19;;;;;;;27.42;15.43;;;11.40;94.70;;;;;;5033971;28;20045;-70
2023/04/10 07:46:46;;;;;;;27.42;14.73;;;11.50;94.50;;;;;;5034081;28;20026;-71
2023/04/10 07:49:11;;;;;;;26.67;14.80;;;11.70;94.20;;;;;;5034601;28;20033;-71
2023/04/10 07:51:37;;;;;;;27.73;14.85;;;11.70;94.00;;;;;;5034200;28;20039;-71
2023/04/10 07:54:03;;;;;;;24.70;13.95;;;11.80;93.60;;;;;;5033871;28;20030;-71
2023/04/10 07:56:32;;;;;;;22.98;13.57;;;12.00;93.60;;;;;;5033756;28;20109;-71
2023/04/10 07:59:01;;;;;;;24.77;14.18;;;12.10;93.40;;;;;;5033536;28;20455;-71
2023/04/10 08:01:27;;;;;;;24.42;13.07;;;12.20;93.00;;;;;;5033452;28;20490;-71
2023/04/10 08:03:54;;;;;;;22.77;13.52;;;12.20;93.00;;;;;;5033872;28;20032;-73
2023/04/10 08:06:21;;;;;;;21.85;13.27;;;12.40;92.90;;;;;;5034096;28;20026;-72
2023/04/10 08:08:47;;;;;;;21.35;13.13;;;12.50;92.90;;;;;;5032567;28;20091;-70
2023/04/10 08:11:26;;;;;;;23.85;13.63;;;12.70;93.00;;;;;;5033385;28;20040;-72
2023/04/10 08:13:53;;;;;;;21.55;12.45;;;13.50;92.90;;;;;;5033392;28;20452;-72
2023/04/10 08:16:23;;;;;;;19.77;11.68;;;14.70;91.90;;;;;;5032209;28;20037;-70
2023/04/10 08:18:50;;;;;;;19.45;11.93;;;16.30;91.40;;;;;;5032507;28;20053;-70
2023/04/10 08:21:16;;;;;;;18.85;11.02;;;17.50;87.90;;;;;;5033159;28;20096;-70
2023/04/10 08:23:41;;;;;;;19.42;11.52;;;18.20;83.70;;;;;;5032571;28;20029;-70
2023/04/10 08:26:07;;;;;;;16.35;10.57;;;18.70;81.40;;;;;;5033104;28;20091;-71
2023/04/10 08:28:33;;;;;;;18.00;10.90;;;18.90;79.40;;;;;;5033098;28;20099;-70
2023/04/10 08:30:58;;;;;;;18.00;11.18;;;19.50;79.00;;;;;;5052895;28;20156;-71
2023/04/10 08:33:24;;;;;;;16.33;10.93;;;20.30;76.70;;;;;;5073437;28;20519;-73
2023/04/10 08:35:50;;;;;;;18.10;11.60;;;20.90;75.30;;;;;;5073126;28;20032;-71
2023/04/10 08:38:16;;;;;;;15.23;10.65;;;21.50;71.80;;;;;;5071561;28;20040;-72
2023/04/10 08:40:43;;;;;;;17.42;11.10;;;22.20;69.60;;;;;;5073180;28;20029;-70
2023/04/10 08:43:09;;;;;;;14.67;9.83;;;22.90;65.30;;;;;;5072754;28;20038;-69
2023/04/10 08:45:35;;;;;;;15.48;10.35;;;23.40;63.80;;;;;;5071937;28;20024;-71
2023/04/10 08:48:04;;;;;;;16.27;10.23;;;24.10;63.00;;;;;;5072518;28;20170;-70
2023/04/10 08:50:32;;;;;;;13.88;10.00;;;24.40;60.70;;;;;;5071170;28;20037;-69
2023/04/10 08:53:04;;;;;;;18.48;11.30;;;24.70;57.50;;;;;;5072520;28;20078;-69
2023/04/10 08:55:33;;;;;;;15.02;10.43;;;23.60;55.30;;;;;;5073030;28;20029;-71
2023/04/10 08:57:59;;;;;;;15.93;10.32;;;23.70;55.60;;;;;;5071913;28;20039;-70
2023/04/10 09:00:26;;;;;;;15.07;10.68;;;23.30;56.10;;;;;;5072638;28;20037;-71
2023/04/10 09:02:56;;;;;;;13.85;9.85;;;23.80;57.10;;;;;;5071038;28;20294;-73
2023/04/10 09:05:26;;;;;;;15.07;10.65;;;24.20;55.80;;;;;;5071292;28;20113;-74
2023/04/10 09:07:51;;;;;;;12.98;9.85;;;24.70;55.90;;;;;;5072500;28;20036;-74
2023/04/10 09:10:17;;;;;;;18.25;10.20;;;25.50;53.70;;;;;;5072593;28;20059;-74
2023/04/10 09:12:56;;;;;;;15.18;10.90;;;25.70;54.90;;;;;;5073404;28;20021;-78
2023/04/10 09:15:22;;;;;;;14.68;10.13;;;25.30;51.50;;;;;;5044928;28;20047;-74
2023/04/10 09:17:59;;;;;;;14.55;9.43;;;25.90;53.30;;;;;;5072423;28;20032;-72
2023/04/10 09:20:28;;;;;;;13.73;9.70;;;26.60;50.40;;;;;;5071179;28;20059;-73
2023/04/10 09:22:53;;;;;;;13.18;10.02;;;26.30;48.60;;;;;;5071799;28;20090;-77
2023/04/10 09:25:37;;;;;;;12.68;9.15;;;26.10;48.90;;;;;;5070554;28;20041;-74
2023/04/10 09:28:08;;;;;;;11.50;9.02;;;26.80;47.80;;;;;;5071759;28;20024;-74
2023/04/10 09:30:38;;;;;;;12.43;9.35;;;26.20;47.50;;;;;;5072197;28;20097;-75
2023/04/10 09:33:23;;;;;;;11.10;8.80;;;26.20;46.80;;;;;;5071610;28;20361;-75
2023/04/10 09:35:50;;;;;;;11.48;8.77;;;25.90;46.40;;;;;;5071854;28;20064;-75
2023/04/10 09:38:20;;;;;;;12.05;8.93;;;26.40;46.50;;;;;;5071728;28;20033;-75
2023/04/10 09:40:47;;;;;;;11.77;9.00;;;26.70;46.10;;;;;;5071666;28;20036;-75
2023/04/10 09:43:31;;;;;;;10.15;7.65;;;27.20;44.90;;;;;;5071610;28;20048;-74
2023/04/10 09:45:57;;;;;;;10.80;8.13;;;26.60;44.00;;;;;;5070575;28;20428;-76
2023/04/10 09:48:25;;;;;;;10.75;8.32;;;26.60;44.00;;;;;;5072126;28;20017;-76
2023/04/10 09:50:51;;;;;;;14.05;8.35;;;26.80;45.30;;;;;;5071400;28;20032;-76
2023/04/10 09:53:19;;;;;;;12.30;9.20;;;27.60;43.70;;;;;;5071402;28;20046;-75
2023/04/10 09:55:49;;;;;;;11.52;8.52;;;27.60;43.80;;;;;;5071423;28;20040;-74
2023/04/10 09:58:15;;;;;;;11.23;8.27;;;28.00;43.00;;;;;;5071648;28;20029;-76
2023/04/10 10:00:46;;;;;;;10.82;7.90;;;28.30;43.20;;;;;;5071790;28;20100;-75
2023/04/10 10:03:17;;;;;;;10.77;8.75;;;28.40;42.20;;;;;;5071204;28;20507;-74
2023/04/10 10:05:45;;;;;;;11.27;8.77;;;28.20;41.40;;;;;;5070047;28;20063;-74
2023/04/10 10:08:12;;;;;;;13.70;9.52;;;27.60;42.00;;;;;;5071072;28;20042;-76
2023/04/10 10:10:44;;;;;;;11.60;8.68;;;28.00;42.60;;;;;;5071106;28;20449;-76
2023/04/10 10:13:16;;;;;;;10.60;8.57;;;29.00;42.90;;;;;;5071020;28;20021;-74
2023/04/10 10:16:00;;;;;;;9.45;7.07;;;29.10;41.70;;;;;;5071683;28;20082;-76
2023/04/10 10:18:50;;;;;;;8.48;6.93;;;28.70;39.40;;;;;;5071108;28;20363;-76
2023/04/10 10:21:18;;;;;;;9.68;7.50;;;29.30;40.40;;;;;;5070991;28;20116;-75
2023/04/10 10:23:46;;;;;;;10.23;7.93;;;29.00;39.10;;;;;;5070883;28;20036;-76
2023/04/10 10:26:12;;;;;;;9.27;7.50;;;28.20;40.20;;;;;;5070876;28;20458;-74
2023/04/10 10:28:40;;;;;;;10.07;7.05;;;28.20;39.90;;;;;;5071153;28;20032;-74
2023/04/10 10:31:06;;;;;;;7.38;5.95;;;28.70;40.00;;;;;;5070717;28;20119;-75
2023/04/10 10:33:34;;;;;;;8.07;6.07;;;28.40;37.50;;;;;;5071523;28;20025;-77
2023/04/10 10:36:01;;;;;;;8.80;6.78;;;28.30;39.00;;;;;;5069777;28;20111;-74
2023/04/10 10:38:28;;;;;;;8.32;6.95;;;28.10;37.50;;;;;;5070395;28;20105;-73
2023/04/10 10:41:20;;;;;;;8.02;6.22;;;28.00;37.50;;;;;;5070838;28;20121;-72
2023/04/10 10:44:27;;;;;;;7.28;6.05;;;27.70;38.40;;;;;;5069235;28;20319;-73
2023/04/10 10:47:28;;;;;;;9.05;6.53;;;27.60;36.60;;;;;;5070089;28;20375;-74
2023/04/10 10:49:56;;;;;;;8.57;6.28;;;28.10;37.60;;;;;;5070575;28;20051;-72
2023/04/10 10:52:43;;;;;;;8.43;6.53;;;27.90;37.40;;;;;;5069615;28;20021;-72
2023/04/10 10:55:30;;;;;;;8.15;5.97;;;27.70;37.50;;;;;;5069487;28;20070;-72
2023/04/10 10:58:04;;;;;;;8.48;6.18;;;27.40;38.00;;;;;;5069513;28;20029;-72
2023/04/10 11:00:51;;;;;;;10.55;7.63;;;27.80;37.70;;;;;;5070965;28;20029;-73
2023/04/10 11:03:17;;;;;;;9.15;6.47;;;26.70;38.30;;;;;;5070717;28;20470;-71
2023/04/10 11:06:01;;;;;;;9.40;6.75;;;26.80;38.40;;;;;;5069270;28;20036;-72
2023/04/10 11:08:42;;;;;;;10.82;6.47;;;26.90;38.90;;;;;;5072573;28;20033;-73
2023/04/10 11:11:17;;;;;;;12.98;8.30;;;27.00;38.90;;;;;;5074625;28;20033;-74
2023/04/10 11:13:50;;;;;;;11.02;7.70;;;26.20;38.80;;;;;;5073409;28;20024;-73
2023/04/10 11:16:17;;;;;;;11.05;6.88;;;25.80;39.70;;;;;;5074393;28;20029;-73
2023/04/10 11:18:45;;;;;;;8.48;6.45;;;25.30;40.30;;;;;;5074675;28;20032;-72
2023/04/10 11:21:22;;;;;;;9.38;7.00;;;24.60;41.20;;;;;;5089098;28;20024;-72
2023/04/10 11:23:51;;;;;;;10.27;7.00;;;23.70;41.60;;;;;;5094169;28;20056;-72
2023/04/10 11:26:44;;;;;;;9.27;6.25;;;23.50;42.70;;;;;;5094795;28;20032;-73
2023/04/10 11:29:16;;;;;;;13.60;8.43;;;23.10;43.20;;;;;;5092405;28;20024;-72
2023/04/10 11:32:04;;;;;;;9.57;6.95;;;22.60;43.80;;;;;;5094139;28;20113;-71
2023/04/10 11:34:31;;;;;;;10.05;6.60;;;22.60;44.20;;;;;;5094195;28;20020;-71
2023/04/10 11:37:00;;;;;;;10.98;7.22;;;22.50;44.10;;;;;;5092754;28;20030;-72
2023/04/10 11:39:26;;;;;;;10.35;7.45;;;22.30;44.70;;;;;;5093306;28;20024;-71
2023/04/10 11:41:54;;;;;;;9.20;6.90;;;22.00;44.90;;;;;;5092884;28;20393;-73
2023/04/10 11:44:30;;;;;;;11.02;7.22;;;21.70;45.30;;;;;;5094101;28;20120;-72
2023/04/10 11:46:56;;;;;;;11.00;7.50;;;21.60;45.30;;;;;;5094097;28;20468;-72
2023/04/10 11:49:40;;;;;;;17.08;8.20;;;21.30;46.10;;;;;;5093949;28;20454;-71
2023/04/10 11:52:06;;;;;;;11.05;7.72;;;21.00;46.40;;;;;;5093978;28;20020;-72
2023/04/10 11:54:32;;;;;;;13.90;8.13;;;20.90;47.00;;;;;;5094587;28;20026;-73
2023/04/10 11:57:08;;;;;;;12.65;7.80;;;20.80;46.70;;;;;;5092981;28;20113;-71
2023/04/10 11:59:34;;;;;;;9.93;7.05;;;20.90;47.10;;;;;;5093996;28;20039;-72
2023/04/10 12:02:08;;;;;;;9.32;6.40;;;21.00;47.20;;;;;;5093992;28;20374;-70
2023/04/10 12:04:34;;;;;;;9.25;6.85;;;21.00;47.00;;;;;;5093817;28;20036;-72
2023/04/10 12:07:00;;;;;;;10.13;7.00;;;20.90;46.90;;;;;;5093061;28;20020;-73
2023/04/10 12:09:26;;;;;;;11.02;7.25;;;20.80;47.10;;;;;;5093232;28;20411;-73
2023/04/10 12:12:06;;;;;;;10.75;6.63;;;20.70;47.00;;;;;;5092015;28;20552;-73
2023/04/10 12:14:40;;;;;;;9.93;6.07;;;20.70;47.20;;;;;;5092285;28;20339;-73
2023/04/10 12:17:08;;;;;;;8.85;5.90;;;20.70;46.90;;;;;;5092911;28;20032;-73
2023/04/10 12:19:35;;;;;;;8.05;5.55;;;20.70;46.40;;;;;;5092523;28;20124;-72
2023/04/10 12:22:04;;;;;;;9.27;6.10;;;20.60;46.20;;;;;;5093590;28;20047;-72
2023/04/10 12:24:44;;;;;;;8.60;6.38;;;20.50;46.40;;;;;;5094377;28;20121;-71
2023/04/10 12:27:27;;;;;;;8.35;5.60;;;20.20;46.70;;;;;;5093365;28;20024;-72
2023/04/10 12:29:54;;;;;;;8.07;5.18;;;20.40;46.70;;;;;;5092000;28;20098;-75
2023/04/10 12:32:21;;;;;;;7.35;5.35;;;20.30;46.10;;;;;;5093213;28;20044;-73
2023/04/10 12:34:57;;;;;;;7.45;5.22;;;20.30;46.20;;;;;;5092610;28;20059;-73
2023/04/10 12:37:46;;;;;;;6.63;5.13;;;20.20;46.10;;;;;;5092517;28;20378;-74
2023/04/10 12:40:12;;;;;;;6.78;4.93;;;20.10;46.20;;;;;;5092946;28;20023;-70
2023/04/10 12:42:41;;;;;;;6.30;4.93;;;20.00;46.40;;;;;;5093383;28;20035;-73